createdAt,value
2023-05-16T00:00:41.938Z,67.47
2023-05-16T00:05:43.233Z,67.77
2023-05-16T00:10:44.622Z,68.36
2023-05-16T00:15:46.012Z,67.69
2023-05-16T00:20:48.241Z,67.55
2023-05-16T00:25:49.673Z,67.50
2023-05-16T00:30:51.013Z,67.42
2023-05-16T00:35:53.657Z,68.14
2023-05-16T00:40:55.014Z,66.84
2023-05-16T00:45:57.921Z,67.74
2023-05-16T00:51:00.367Z,66.93
2023-05-16T00:56:01.995Z,66.93
2023-05-16T01:01:07.988Z,66.99
2023-05-16T01:06:09.613Z,67.02
2023-05-16T01:11:31.039Z,67.05
2023-05-16T01:16:59.671Z,67.12
2023-05-16T01:22:34.275Z,68.50
2023-05-16T01:27:35.922Z,67.68
2023-05-16T01:32:37.225Z,69.04
2023-05-16T01:37:48.692Z,67.98
2023-05-16T01:42:54.705Z,67.73
2023-05-16T01:48:06.030Z,67.45
2023-05-16T01:53:12.005Z,68.06
2023-05-16T01:58:19.036Z,68.84
2023-05-16T02:03:20.372Z,67.81
2023-05-16T02:08:21.846Z,68.46
2023-05-16T02:13:23.212Z,68.71
2023-05-16T02:18:24.657Z,67.88
2023-05-16T02:23:25.933Z,67.91
2023-05-16T02:28:27.251Z,68.67
2023-05-16T02:33:29.022Z,69.21
2023-05-16T02:38:30.404Z,70.14
2023-05-16T02:43:32.015Z,70.35
2023-05-16T02:48:33.350Z,70.15
2023-05-16T02:53:34.659Z,70.87
2023-05-16T02:58:36.059Z,70.16
2023-05-16T03:03:37.713Z,70.90
2023-05-16T03:08:39.299Z,70.63
2023-05-16T03:13:41.564Z,71.11
2023-05-16T03:18:43.226Z,71.01
2023-05-16T03:23:44.588Z,71.22
2023-05-16T03:28:45.959Z,71.48
2023-05-16T03:33:47.259Z,71.15
2023-05-16T03:38:48.732Z,71.69
2023-05-16T03:43:50.135Z,72.72
2023-05-16T03:48:51.614Z,71.51
2023-05-16T03:53:52.875Z,72.70
2023-05-16T03:58:54.336Z,72.10
2023-05-16T04:03:55.612Z,72.50
2023-05-16T04:08:56.932Z,73.04
2023-05-16T04:13:59.524Z,73.77
2023-05-16T04:19:01.180Z,73.93
2023-05-16T04:24:02.607Z,73.30
2023-05-16T04:29:03.972Z,73.38
2023-05-16T04:34:05.874Z,73.50
2023-05-16T04:39:08.694Z,74.55
2023-05-16T04:44:11.230Z,73.45
2023-05-16T04:49:12.828Z,72.22
2023-05-16T04:54:14.578Z,71.83
2023-05-16T04:59:15.955Z,71.42
2023-05-16T05:04:17.719Z,72.25
2023-05-16T05:09:19.228Z,71.79
2023-05-16T05:14:21.604Z,71.40
2023-05-16T05:19:23.189Z,71.15
2023-05-16T05:24:24.529Z,70.94
2023-05-16T05:29:26.158Z,70.24
2023-05-16T05:34:27.424Z,70.71
2023-05-16T05:39:28.746Z,71.14
2023-05-16T05:44:30.690Z,70.66
2023-05-16T05:49:32.586Z,70.68
2023-05-16T05:54:33.967Z,70.95
2023-05-16T05:59:35.574Z,67.90
2023-05-16T06:04:36.954Z,65.72
2023-05-16T06:09:38.451Z,65.78
2023-05-16T06:14:39.935Z,65.52
2023-05-16T06:19:41.432Z,67.62
2023-05-16T06:24:42.998Z,69.15
2023-05-16T06:29:44.366Z,70.18
2023-05-16T06:34:45.678Z,70.27
2023-05-16T06:39:47.133Z,69.70
2023-05-16T06:44:48.589Z,69.29
2023-05-16T06:49:50.862Z,69.42
2023-05-16T06:54:52.708Z,68.78
2023-05-16T06:59:54.145Z,69.07
2023-05-16T07:04:55.678Z,69.34
2023-05-16T07:09:56.997Z,68.98
2023-05-16T07:14:58.413Z,67.99
2023-05-16T07:20:01.825Z,69.04
2023-05-16T07:25:05.799Z,69.59
2023-05-16T07:30:09.785Z,68.38
2023-05-16T07:35:11.373Z,68.45
2023-05-16T07:40:13.201Z,68.35
2023-05-16T07:45:14.850Z,66.41
2023-05-16T07:50:16.361Z,66.50
2023-05-16T07:55:17.818Z,67.90
2023-05-16T08:00:20.152Z,67.94
2023-05-16T08:05:21.824Z,67.51
2023-05-16T08:10:26.321Z,66.27
2023-05-16T08:15:28.618Z,67.02
2023-05-16T08:20:30.508Z,66.12
2023-05-16T08:25:32.063Z,65.48
2023-05-16T08:30:33.563Z,65.21
2023-05-16T08:35:35.513Z,64.67
2023-05-16T08:40:36.933Z,63.74
2023-05-16T08:45:40.152Z,63.58
2023-05-16T08:50:42.906Z,63.96
2023-05-16T08:55:45.609Z,63.89
2023-05-16T09:00:47.965Z,63.93
2023-05-16T09:05:50.004Z,64.03
2023-05-16T09:10:51.325Z,62.99
2023-05-16T09:16:13.069Z,63.48
2023-05-16T09:21:15.766Z,64.30
2023-05-16T09:26:18.776Z,64.84
2023-05-16T09:31:26.685Z,65.19
2023-05-16T09:36:28.311Z,64.34
2023-05-16T09:41:34.162Z,64.69
2023-05-16T09:46:37.527Z,64.76
2023-05-16T09:51:41.259Z,63.46
2023-05-16T09:56:50.859Z,62.23
2023-05-16T10:01:53.123Z,61.18
2023-05-16T10:06:58.989Z,60.50
2023-05-16T10:12:07.077Z,59.22
2023-05-16T10:17:12.616Z,58.04
2023-05-16T10:22:16.515Z,58.24
2023-05-16T10:27:19.432Z,57.79
2023-05-16T10:32:23.364Z,56.96
2023-05-16T10:37:25.625Z,56.68
2023-05-16T10:42:27.024Z,56.21
2023-05-16T10:47:28.467Z,55.72
2023-05-16T10:52:35.456Z,55.90
2023-05-16T10:57:37.006Z,54.77
2023-05-16T11:02:41.785Z,54.57
2023-05-16T11:07:43.948Z,54.72
2023-05-16T11:12:48.534Z,53.33
2023-05-16T11:18:03.290Z,52.02
2023-05-16T11:23:17.397Z,51.22
2023-05-16T11:28:22.557Z,50.01
2023-05-16T11:33:25.052Z,49.13
2023-05-16T11:38:27.843Z,48.34
2023-05-16T11:43:29.242Z,49.41
2023-05-16T11:48:36.255Z,48.33
2023-05-16T11:53:38.560Z,48.45
2023-05-16T11:58:40.073Z,47.46
2023-05-16T12:03:41.968Z,47.34
2023-05-16T12:08:50.607Z,47.02
2023-05-16T12:13:52.667Z,45.03
2023-05-16T12:18:54.312Z,44.91
2023-05-16T12:23:58.368Z,42.35
2023-05-16T12:29:03.209Z,38.71
2023-05-16T12:34:04.667Z,40.79
2023-05-16T12:39:06.049Z,40.54
2023-05-16T12:44:13.204Z,38.84
2023-05-16T12:49:14.837Z,39.15
2023-05-16T12:54:16.782Z,38.64
2023-05-16T12:59:19.905Z,38.81
2023-05-16T13:04:22.935Z,39.18
2023-05-16T13:09:24.419Z,38.47
2023-05-16T13:14:25.750Z,37.59
2023-05-16T13:19:27.306Z,35.48
2023-05-16T13:24:28.976Z,37.33
2023-05-16T13:29:30.707Z,36.47
2023-05-16T13:34:32.193Z,36.13
2023-05-16T13:39:33.579Z,36.96
2023-05-16T13:44:34.946Z,35.80
2023-05-16T13:49:36.357Z,36.23
2023-05-16T13:54:39.585Z,36.26
2023-05-16T14:04:46.726Z,35.25
2023-05-16T14:09:49.108Z,35.77
2023-05-16T14:14:50.516Z,35.52
2023-05-16T14:19:52.571Z,34.48
2023-05-16T14:24:53.896Z,34.67
2023-05-16T14:29:56.009Z,34.37
2023-05-16T14:34:57.369Z,35.64
2023-05-16T14:39:59.629Z,36.33
2023-05-16T14:45:01.440Z,35.19
2023-05-16T14:50:02.892Z,35.13
2023-05-16T14:55:04.965Z,35.84
2023-05-16T15:00:07.457Z,35.75
2023-05-16T15:05:09.823Z,35.89
2023-05-16T15:10:11.697Z,35.11
2023-05-16T15:15:14.938Z,36.50
2023-05-16T15:20:18.721Z,36.07
2023-05-16T15:25:21.849Z,34.77
2023-05-16T15:30:23.437Z,36.27
2023-05-16T15:35:24.954Z,35.22
2023-05-16T15:40:27.273Z,36.04
2023-05-16T15:45:29.191Z,35.14
2023-05-16T15:50:31.109Z,34.25
2023-05-16T15:55:32.486Z,34.05
2023-05-16T16:00:33.950Z,35.32
2023-05-16T16:05:35.678Z,35.72
2023-05-16T16:10:37.008Z,35.45
2023-05-16T16:15:39.331Z,35.65
2023-05-16T16:20:40.869Z,35.40
2023-05-16T16:25:42.332Z,35.16
2023-05-16T16:30:44.806Z,34.99
2023-05-16T16:35:46.279Z,34.02
2023-05-16T16:40:47.604Z,35.31
2023-05-16T16:45:49.576Z,35.75
2023-05-16T16:50:52.113Z,37.40
2023-05-16T16:55:53.465Z,37.64
2023-05-16T17:00:54.789Z,36.86
2023-05-16T17:05:56.220Z,37.42
2023-05-16T17:10:59.760Z,37.61
2023-05-16T17:16:01.450Z,36.63
2023-05-16T17:21:02.945Z,37.27
2023-05-16T17:26:04.404Z,36.64
2023-05-16T17:31:05.831Z,36.92
2023-05-16T17:36:07.856Z,38.24
2023-05-16T17:41:09.234Z,38.21
2023-05-16T17:46:10.847Z,39.25
2023-05-16T17:51:12.224Z,39.46
2023-05-16T17:56:14.059Z,39.44
2023-05-16T18:01:15.480Z,39.79
2023-05-16T18:06:17.004Z,40.16
2023-05-16T18:11:18.654Z,39.46
2023-05-16T18:16:20.287Z,39.94
2023-05-16T18:21:21.689Z,40.17
2023-05-16T18:26:23.148Z,39.58
2023-05-16T18:31:24.810Z,39.73
2023-05-16T18:36:26.213Z,39.23
2023-05-16T18:41:27.700Z,39.21
2023-05-16T18:46:29.089Z,40.45
2023-05-16T18:51:30.700Z,41.02
2023-05-16T18:56:32.348Z,41.28
2023-05-16T19:01:34.269Z,41.36
2023-05-16T19:06:35.601Z,41.50
2023-05-16T19:11:37.412Z,41.27
2023-05-16T19:16:38.747Z,41.89
2023-05-16T19:21:40.062Z,42.30
2023-05-16T19:26:41.558Z,43.04
2023-05-16T19:31:42.927Z,43.10
2023-05-16T19:36:44.389Z,43.43
2023-05-16T19:41:47.747Z,43.02
2023-05-16T19:46:54.203Z,43.58
2023-05-16T19:51:55.723Z,43.25
2023-05-16T19:56:57.044Z,43.16
2023-05-16T20:01:59.684Z,43.65
2023-05-16T20:07:01.243Z,43.30
2023-05-16T20:12:03.278Z,43.70
2023-05-16T20:17:04.674Z,43.80
2023-05-16T20:22:05.993Z,44.11
2023-05-16T20:27:07.366Z,44.20
2023-05-16T20:32:08.873Z,44.27
2023-05-16T20:37:10.264Z,45.11
2023-05-16T20:42:11.860Z,45.31
2023-05-16T20:47:13.989Z,45.05
2023-05-16T20:52:15.447Z,45.74
2023-05-16T20:57:17.656Z,45.57
2023-05-16T21:02:19.032Z,46.02
2023-05-16T21:07:21.430Z,46.07
2023-05-16T21:12:22.802Z,46.16
2023-05-16T21:17:24.144Z,46.73
2023-05-16T21:22:25.538Z,47.11
2023-05-16T21:27:27.473Z,47.54
2023-05-16T21:32:32.204Z,47.34
2023-05-16T21:37:33.876Z,48.01
2023-05-16T21:42:36.217Z,47.32
2023-05-16T21:47:37.577Z,47.55
2023-05-16T21:52:39.784Z,47.96
2023-05-16T21:57:41.237Z,48.19
2023-05-16T22:02:42.785Z,48.80
2023-05-16T22:07:44.282Z,48.92
2023-05-16T22:12:45.668Z,48.95
2023-05-16T22:17:48.576Z,49.31
2023-05-16T22:22:50.887Z,49.37
2023-05-16T22:27:52.330Z,49.79
2023-05-16T22:32:54.600Z,49.55
2023-05-16T22:37:56.018Z,50.23
2023-05-16T22:42:57.454Z,50.20
2023-05-16T22:47:58.914Z,50.33
2023-05-16T22:53:00.309Z,50.53
2023-05-16T22:58:01.833Z,51.08
2023-05-16T23:03:03.329Z,51.38
2023-05-16T23:08:05.188Z,51.01
2023-05-16T23:13:06.561Z,51.33
2023-05-16T23:18:08.100Z,51.56
2023-05-16T23:23:09.568Z,51.87
2023-05-16T23:28:10.962Z,52.33
2023-05-16T23:33:14.105Z,52.05
2023-05-16T23:38:15.822Z,52.28
2023-05-16T23:43:17.200Z,52.46
2023-05-16T23:48:18.673Z,52.51
2023-05-16T23:53:21.051Z,53.11
2023-05-16T23:58:22.455Z,52.77
